createdAt,value
2017-12-05T00:05:01.524Z,4.80
2017-12-05T00:10:04.197Z,4.80
2017-12-05T00:15:07.798Z,4.57
2017-12-05T00:20:10.479Z,4.67
2017-12-05T00:25:14.735Z,4.20
2017-12-05T00:30:17.353Z,8.93
2017-12-05T00:35:20.416Z,4.30
2017-12-05T00:40:23.979Z,5.00
2017-12-05T00:45:27.499Z,4.53
2017-12-05T00:50:30.112Z,4.90
2017-12-05T00:55:33.433Z,4.13
2017-12-05T01:00:36.162Z,5.00
2017-12-05T01:05:39.252Z,4.17
2017-12-05T01:10:42.181Z,4.63
2017-12-05T01:15:46.013Z,4.20
2017-12-05T01:20:49.417Z,4.80
2017-12-05T01:25:53.386Z,4.30
2017-12-05T01:30:55.987Z,4.63
2017-12-05T01:35:58.866Z,3.73
2017-12-05T01:41:01.507Z,3.90
2017-12-05T01:46:04.334Z,3.80
2017-12-05T01:51:06.987Z,3.50
2017-12-05T01:56:11.355Z,4.33
2017-12-05T02:01:14.172Z,4.53
2017-12-05T02:06:17.243Z,4.10
2017-12-05T02:11:19.982Z,4.10
2017-12-05T02:16:23.250Z,4.80
2017-12-05T02:21:26.672Z,4.73
2017-12-05T02:26:30.928Z,5.20
2017-12-05T02:31:33.553Z,5.60
2017-12-05T02:36:36.716Z,6.23
2017-12-05T02:41:40.122Z,6.70
2017-12-05T02:46:44.449Z,8.70
2017-12-05T02:51:47.034Z,8.43
2017-12-05T02:56:50.598Z,9.00
2017-12-05T03:01:53.168Z,8.80
2017-12-05T03:06:56.736Z,8.07
2017-12-05T03:11:59.351Z,9.17
2017-12-05T03:17:02.519Z,8.13
2017-12-05T03:22:05.139Z,8.07
2017-12-05T03:27:08.429Z,7.33
2017-12-05T03:32:11.816Z,6.93
2017-12-05T03:37:16.656Z,6.43
2017-12-05T03:42:19.268Z,6.23
2017-12-05T03:47:22.317Z,6.83
2017-12-05T03:52:24.940Z,5.87
2017-12-05T03:57:27.795Z,5.53
2017-12-05T04:02:31.187Z,6.27
2017-12-05T04:07:34.458Z,6.97
2017-12-05T04:12:37.052Z,6.13
2017-12-05T04:17:40.624Z,6.23
2017-12-05T04:22:44.761Z,6.27
2017-12-05T04:27:48.492Z,6.07
2017-12-05T04:32:51.118Z,6.03
2017-12-05T04:37:54.312Z,5.90
2017-12-05T04:42:57.699Z,6.20
2017-12-05T04:48:01.068Z,5.83
2017-12-05T04:53:03.647Z,6.23
2017-12-05T04:58:07.759Z,4.83
2017-12-05T05:03:11.121Z,4.93
2017-12-05T05:08:14.595Z,5.47
2017-12-05T05:13:18.732Z,5.17
2017-12-05T05:18:21.666Z,4.77
2017-12-05T05:23:24.363Z,5.20
2017-12-05T05:28:28.716Z,5.07
2017-12-05T05:33:31.372Z,4.80
2017-12-05T05:38:34.671Z,4.90
2017-12-05T05:43:37.318Z,4.27
2017-12-05T05:48:40.567Z,5.13
2017-12-05T05:53:43.179Z,5.07
2017-12-05T05:58:46.552Z,5.03
2017-12-05T06:03:49.175Z,4.93
2017-12-05T06:08:52.196Z,5.27
2017-12-05T06:13:54.810Z,5.20
2017-12-05T06:18:57.890Z,5.30
2017-12-05T06:24:00.520Z,5.33
2017-12-05T06:29:03.797Z,5.10
2017-12-05T06:34:06.430Z,4.93
2017-12-05T06:39:09.791Z,4.20
2017-12-05T06:44:12.402Z,4.23
2017-12-05T06:49:15.352Z,4.60
2017-12-05T06:54:18.748Z,4.57
2017-12-05T06:59:22.014Z,4.70
2017-12-05T07:04:24.647Z,4.67
2017-12-05T07:09:27.782Z,5.23
2017-12-05T07:14:30.400Z,5.13
2017-12-05T07:19:33.584Z,6.10
2017-12-05T07:24:36.206Z,6.43
2017-12-05T07:29:39.582Z,11.90
2017-12-05T07:34:42.209Z,7.43
2017-12-05T07:39:45.575Z,8.00
2017-12-05T07:44:48.194Z,7.10
2017-12-05T07:49:51.561Z,6.90
2017-12-05T07:54:54.156Z,7.23
2017-12-05T07:59:57.619Z,6.93
2017-12-05T08:05:00.246Z,7.33
2017-12-05T08:10:03.587Z,15.20
2017-12-05T08:15:06.199Z,7.47
2017-12-05T08:20:09.810Z,6.63
2017-12-05T08:25:13.240Z,7.03
2017-12-05T08:30:17.574Z,11.27
2017-12-05T08:35:20.963Z,6.67
2017-12-05T08:40:25.987Z,5.97
2017-12-05T08:45:28.762Z,5.67
2017-12-05T08:50:32.975Z,5.53
2017-12-05T08:55:35.585Z,5.10
2017-12-05T09:00:39.892Z,5.87
2017-12-05T09:05:42.512Z,6.17
2017-12-05T09:10:45.888Z,6.50
2017-12-05T09:15:48.493Z,6.13
2017-12-05T09:20:51.726Z,6.27
2017-12-05T09:25:54.369Z,6.30
2017-12-05T09:30:57.612Z,6.40
2017-12-05T09:36:00.225Z,5.70
2017-12-05T09:41:03.696Z,5.27
2017-12-05T09:46:06.316Z,6.17
2017-12-05T09:51:09.667Z,5.80
2017-12-05T09:56:12.279Z,6.43
2017-12-05T10:01:15.927Z,6.30
2017-12-05T10:06:18.578Z,6.57
2017-12-05T10:11:21.443Z,6.03
2017-12-05T10:16:24.063Z,6.97
2017-12-05T10:21:27.185Z,7.60
2017-12-05T10:26:29.808Z,6.73
2017-12-05T10:31:32.890Z,7.20
2017-12-05T10:36:35.538Z,7.27
2017-12-05T10:41:39.784Z,6.70
2017-12-05T10:46:42.435Z,6.27
2017-12-05T10:51:45.410Z,6.77
2017-12-05T10:56:48.013Z,6.33
2017-12-05T11:01:51.572Z,7.17
2017-12-05T11:06:54.164Z,8.00
2017-12-05T11:11:57.329Z,14.53
2017-12-05T11:16:59.946Z,7.93
2017-12-05T11:22:03.291Z,7.17
2017-12-05T11:27:05.960Z,7.80
2017-12-05T11:32:08.624Z,7.53
2017-12-05T11:37:11.247Z,7.57
2017-12-05T11:42:14.511Z,7.87
2017-12-05T11:47:17.134Z,7.57
2017-12-05T11:52:21.279Z,7.90
2017-12-05T11:57:23.900Z,6.63
2017-12-05T12:02:26.572Z,6.97
2017-12-05T12:07:29.174Z,7.27
2017-12-05T12:12:32.527Z,7.43
2017-12-05T12:17:35.180Z,7.20
2017-12-05T12:22:38.551Z,6.90
2017-12-05T12:27:41.167Z,6.93
2017-12-05T12:32:44.532Z,7.90
2017-12-05T12:37:47.146Z,7.40
2017-12-05T12:42:50.307Z,7.03
2017-12-05T12:47:53.688Z,6.10
2017-12-05T12:52:56.312Z,7.73
2017-12-05T12:57:58.926Z,7.20
2017-12-05T13:03:02.956Z,6.50
2017-12-05T13:08:06.344Z,6.77
2017-12-05T13:13:09.616Z,6.53
2017-12-05T13:18:12.214Z,6.20
2017-12-05T13:23:15.771Z,6.53
2017-12-05T13:28:18.391Z,6.40
2017-12-05T13:33:21.394Z,7.37
2017-12-05T13:38:24.003Z,7.93
2017-12-05T13:43:28.341Z,7.87
2017-12-05T13:48:31.748Z,7.87
2017-12-05T13:53:35.229Z,8.03
2017-12-05T13:58:37.860Z,6.60
2017-12-05T14:03:41.227Z,6.13
2017-12-05T14:08:43.861Z,6.33
2017-12-05T14:13:47.508Z,6.60
2017-12-05T14:18:50.100Z,6.80
2017-12-05T14:23:53.229Z,7.63
2017-12-05T14:28:56.614Z,8.83
2017-12-05T14:34:00.459Z,7.73
2017-12-05T14:39:03.088Z,8.90
2017-12-05T14:44:06.575Z,9.47
2017-12-05T14:49:09.221Z,9.87
2017-12-05T14:54:12.611Z,10.07
2017-12-05T14:59:16.003Z,10.37
2017-12-05T15:04:19.278Z,9.93
2017-12-05T15:09:21.872Z,10.17
2017-12-05T15:14:25.260Z,9.17
2017-12-05T15:19:27.866Z,10.23
2017-12-05T15:24:30.769Z,9.27
2017-12-05T15:29:33.401Z,10.37
2017-12-05T15:34:36.627Z,9.37
2017-12-05T15:39:40.754Z,9.37
2017-12-05T15:44:43.521Z,8.97
2017-12-05T15:49:46.159Z,9.20
2017-12-05T15:54:49.217Z,9.57
2017-12-05T15:59:51.841Z,9.63
2017-12-05T16:04:54.921Z,9.97
2017-12-05T16:09:58.688Z,8.77
2017-12-05T16:15:01.903Z,10.50
2017-12-05T16:20:06.194Z,10.13
2017-12-05T16:25:09.232Z,10.03
2017-12-05T16:30:11.836Z,11.03
2017-12-05T16:35:15.137Z,11.03
2017-12-05T16:40:17.780Z,11.80
2017-12-05T16:45:22.384Z,11.67
2017-12-05T16:50:25.878Z,11.90
2017-12-05T16:55:29.890Z,10.63
2017-12-05T17:00:32.531Z,11.97
2017-12-05T17:05:35.655Z,12.23
2017-12-05T17:10:39.860Z,12.53
2017-12-05T17:15:43.372Z,12.70
2017-12-05T17:20:48.442Z,12.73
2017-12-05T17:25:54.295Z,12.67
2017-12-05T17:31:00.390Z,12.27
2017-12-05T17:36:03.545Z,11.43
2017-12-05T17:41:08.883Z,12.73
2017-12-05T17:46:13.097Z,12.77
2017-12-05T17:51:16.828Z,13.10
2017-12-05T17:56:21.382Z,14.07
2017-12-05T18:01:25.199Z,13.43
2017-12-05T18:06:34.010Z,14.07
2017-12-05T18:11:37.674Z,13.37
2017-12-05T18:16:42.550Z,13.83
2017-12-05T18:21:46.132Z,13.67
2017-12-05T18:26:51.098Z,13.37
2017-12-05T18:31:56.610Z,11.87
2017-12-05T18:37:02.016Z,12.30
2017-12-05T18:42:06.479Z,11.43
2017-12-05T18:47:11.746Z,11.57
2017-12-05T18:52:15.438Z,12.23
2017-12-05T18:57:20.462Z,11.27
2017-12-05T19:02:27.666Z,11.80
2017-12-05T19:07:30.499Z,10.53
2017-12-05T19:12:35.336Z,11.77
2017-12-05T19:17:40.963Z,11.33
2017-12-05T19:22:44.155Z,10.70
2017-12-05T19:27:49.998Z,10.90
2017-12-05T19:32:53.591Z,10.27
2017-12-05T19:37:59.503Z,10.53
2017-12-05T19:43:04.152Z,10.47
2017-12-05T19:48:10.111Z,10.20
2017-12-05T19:53:13.715Z,10.40
2017-12-05T19:58:18.594Z,9.53
2017-12-05T20:03:22.158Z,10.43
2017-12-05T20:08:27.421Z,10.57
2017-12-05T20:13:32.275Z,9.93
2017-12-05T20:18:37.920Z,9.83
2017-12-05T20:23:41.634Z,10.10
2017-12-05T20:28:45.749Z,10.37
2017-12-05T20:33:50.204Z,10.00
2017-12-05T20:38:55.392Z,10.60
2017-12-05T20:43:58.955Z,10.50
2017-12-05T20:49:02.657Z,10.60
2017-12-05T20:54:05.552Z,10.70
2017-12-05T20:59:10.790Z,11.00
2017-12-05T21:04:15.294Z,10.57
2017-12-05T21:09:20.279Z,11.33
2017-12-05T21:14:23.797Z,11.60
2017-12-05T21:19:27.126Z,11.20
2017-12-05T21:24:29.902Z,11.80
2017-12-05T21:29:34.549Z,10.70
2017-12-05T21:40:06.619Z,11.13
2017-12-05T21:45:09.574Z,11.07
2017-12-05T21:50:13.096Z,11.33
2017-12-05T21:55:16.624Z,11.40
2017-12-05T22:00:21.292Z,11.37
2017-12-05T22:05:23.985Z,10.90
2017-12-05T22:10:26.864Z,11.47
2017-12-05T22:15:30.269Z,11.70
2017-12-05T22:20:34.644Z,11.10
2017-12-05T22:25:37.484Z,11.60
2017-12-05T22:30:41.293Z,10.97
2017-12-05T22:35:44.065Z,10.67
2017-12-05T22:40:47.376Z,11.83
2017-12-05T22:45:50.017Z,11.40
2017-12-05T22:50:52.803Z,10.93
2017-12-05T22:55:55.450Z,11.97
2017-12-05T23:00:58.860Z,11.33
2017-12-05T23:06:01.475Z,11.50
2017-12-05T23:11:05.018Z,11.33
2017-12-05T23:16:07.650Z,11.40
2017-12-05T23:21:12.894Z,11.50
2017-12-05T23:26:16.392Z,11.37
2017-12-05T23:31:20.314Z,11.43
2017-12-05T23:36:23.016Z,12.40
2017-12-05T23:41:26.238Z,11.40
2017-12-05T23:46:30.262Z,9.77
2017-12-05T23:51:34.501Z,10.37
2017-12-05T23:56:38.973Z,11.20
